Time,TemperatureF,DewpointF,PressureIn,WindDirection,WindDirectionDegrees,WindSpeedMPH,WindSpeedGustMPH,Humidity,HourlyPrecipIn,Conditions,Clouds,dailyrainin,SoftwareType,DateUTC
2013-03-29 00:04:00,44.7,32.5,30.20,East,81,5.0,5.0,62,0.00,,---,0.00,VWS V14.01,2013-03-29 05:04:00,
2013-03-29 00:10:00,44.6,32.4,30.20,East,81,3.0,5.0,62,0.00,,---,0.00,VWS V14.01,2013-03-29 05:10:00,
2013-03-29 00:16:00,44.3,32.5,30.20,East,95,3.0,5.0,63,0.00,,---,0.00,VWS V14.01,2013-03-29 05:16:00,
2013-03-29 00:22:00,44.2,32.4,30.20,East,96,0.0,5.0,63,0.00,,---,0.00,VWS V14.01,2013-03-29 05:22:00,
2013-03-29 00:28:00,43.8,32.4,30.21,East,95,1.0,5.0,64,0.00,,---,0.00,VWS V14.01,2013-03-29 05:28:00,
2013-03-29 00:34:00,43.3,32.0,30.21,East,95,1.0,2.0,64,0.00,,---,0.00,VWS V14.01,2013-03-29 05:34:00,
2013-03-29 00:41:00,42.7,31.8,30.21,East,96,0.0,2.0,65,0.00,,---,0.00,VWS V14.01,2013-03-29 05:41:00,
2013-03-29 00:47:00,42.3,31.8,30.21,East,96,1.0,2.0,66,0.00,,---,0.00,VWS V14.01,2013-03-29 05:47:00,
2013-03-29 00:53:00,42.0,31.9,30.21,East,95,1.0,2.0,67,0.00,,---,0.00,VWS V14.01,2013-03-29 05:53:00,
2013-03-29 00:59:00,42.1,32.0,30.21,East,95,1.0,3.0,67,0.00,,---,0.00,VWS V14.01,2013-03-29 05:59:00,
2013-03-29 01:05:00,41.9,31.8,30.21,East,95,0.0,2.0,67,0.00,,---,0.00,VWS V14.01,2013-03-29 06:05:00,
2013-03-29 01:11:00,42.0,32.2,30.21,East,95,5.0,5.0,68,0.00,,---,0.00,VWS V14.01,2013-03-29 06:11:00,
2013-03-29 01:17:00,42.1,32.3,30.20,ESE,107,3.0,6.0,68,0.00,,---,0.00,VWS V14.01,2013-03-29 06:17:00,
2013-03-29 01:23:00,42.0,32.2,30.20,ESE,106,0.0,6.0,68,0.00,,---,0.00,VWS V14.01,2013-03-29 06:23:00,
2013-03-29 01:29:00,41.4,32.0,30.20,ESE,107,1.0,6.0,69,0.00,,---,0.00,VWS V14.01,2013-03-29 06:29:00,
2013-03-29 01:35:00,41.1,32.1,30.20,ESE,107,3.0,4.0,70,0.00,,---,0.00,VWS V14.01,2013-03-29 06:35:00,
2013-03-29 01:41:00,41.1,32.4,30.20,ESE,107,2.0,4.0,71,0.00,,---,0.00,VWS V14.01,2013-03-29 06:41:00,
2013-03-29 01:47:00,41.2,32.5,30.20,ESE,106,2.0,4.0,71,0.00,,---,0.00,VWS V14.01,2013-03-29 06:47:00,
2013-03-29 01:53:00,40.9,32.2,30.20,ESE,106,0.0,4.0,71,0.00,,---,0.00,VWS V14.01,2013-03-29 06:53:00,
2013-03-29 02:00:00,40.3,31.7,30.20,ESE,106,0.0,4.0,71,0.00,,---,0.00,VWS V14.01,2013-03-29 07:00:00,
2013-03-29 02:06:00,39.8,31.5,30.20,ESE,107,1.0,2.0,72,0.00,,---,0.00,VWS V14.01,2013-03-29 07:06:00,
2013-03-29 02:12:00,39.7,31.8,30.20,ESE,107,1.0,2.0,73,0.00,,---,0.00,VWS V14.01,2013-03-29 07:12:00,
2013-03-29 02:18:00,39.8,31.9,30.20,ESE,106,0.0,2.0,73,0.00,,---,0.00,VWS V14.01,2013-03-29 07:18:00,
2013-03-29 02:24:00,39.8,31.9,30.19,ESE,106,0.0,2.0,73,0.00,,---,0.00,VWS V14.01,2013-03-29 07:24:00,
2013-03-29 02:30:00,39.6,31.7,30.19,ESE,106,0.0,2.0,73,0.00,,---,0.00,VWS V14.01,2013-03-29 07:30:00,
2013-03-29 02:38:00,39.1,31.5,30.19,ESE,107,0.0,0.0,74,0.00,,---,0.00,VWS V14.01,2013-03-29 07:38:00,
2013-03-29 02:44:00,38.7,31.1,30.19,ESE,107,1.0,2.0,74,0.00,,---,0.00,VWS V14.01,2013-03-29 07:44:00,
2013-03-29 02:50:00,38.3,31.1,30.19,ESE,106,1.0,2.0,75,0.00,,---,0.00,VWS V14.01,2013-03-29 07:50:00,
2013-03-29 02:56:00,38.2,31.3,30.19,ESE,107,0.0,2.0,76,0.00,,---,0.00,VWS V14.01,2013-03-29 07:56:00,
2013-03-29 03:02:00,38.2,31.3,30.19,ESE,107,0.0,0.0,76,0.00,,---,0.00,VWS V14.01,2013-03-29 08:02:00,
2013-03-29 03:09:00,38.2,31.3,30.19,ESE,106,0.0,0.0,76,0.00,,---,0.00,VWS V14.01,2013-03-29 08:09:00,
2013-03-29 03:15:00,37.9,31.4,30.18,ESE,106,0.0,2.0,77,0.00,,---,0.00,VWS V14.01,2013-03-29 08:15:00,
2013-03-29 03:21:00,37.8,31.2,30.18,ESE,106,0.0,2.0,77,0.00,,---,0.00,VWS V14.01,2013-03-29 08:21:00,
2013-03-29 03:27:00,37.8,31.2,30.18,ESE,107,0.0,2.0,77,0.00,,---,0.00,VWS V14.01,2013-03-29 08:27:00,
2013-03-29 03:33:00,37.7,31.1,30.18,ESE,107,0.0,0.0,77,0.00,,---,0.00,VWS V14.01,2013-03-29 08:33:00,
2013-03-29 03:39:00,37.5,31.0,30.18,ESE,107,1.0,1.0,77,0.00,,---,0.00,VWS V14.01,2013-03-29 08:39:00,
2013-03-29 03:45:00,37.1,30.9,30.18,ESE,106,0.0,1.0,78,0.00,,---,0.00,VWS V14.01,2013-03-29 08:45:00,
2013-03-29 03:53:00,36.8,30.9,30.18,ESE,106,1.0,2.0,79,0.00,,---,0.00,VWS V14.01,2013-03-29 08:53:00,
2013-03-29 03:59:00,36.5,30.6,30.17,ESE,107,0.0,2.0,79,0.00,,---,0.00,VWS V14.01,2013-03-29 08:59:00,
2013-03-29 04:05:00,36.4,30.5,30.17,ESE,107,0.0,0.0,79,0.00,,---,0.00,VWS V14.01,2013-03-29 09:05:00,
2013-03-29 04:11:00,36.4,30.8,30.18,ESE,107,1.0,2.0,80,0.00,,---,0.00,VWS V14.01,2013-03-29 09:11:00,
2013-03-29 04:18:00,36.6,31.0,30.18,ESE,106,1.0,2.0,80,0.00,,---,0.00,VWS V14.01,2013-03-29 09:18:00,
2013-03-29 04:24:00,36.9,31.3,30.18,ESE,106,0.0,2.0,80,0.00,,---,0.00,VWS V14.01,2013-03-29 09:24:00,
2013-03-29 04:30:00,36.9,31.3,30.18,ESE,106,0.0,2.0,80,0.00,,---,0.00,VWS V14.01,2013-03-29 09:30:00,
2013-03-29 04:36:00,37.0,31.4,30.17,ESE,106,2.0,3.0,80,0.00,,---,0.00,VWS V14.01,2013-03-29 09:36:00,
2013-03-29 04:42:00,37.3,31.7,30.17,ESE,106,3.0,4.0,80,0.00,,---,0.00,VWS V14.01,2013-03-29 09:42:00,
2013-03-29 04:48:00,37.8,32.2,30.17,ESE,107,2.0,4.0,80,0.00,,---,0.00,VWS V14.01,2013-03-29 09:48:00,
2013-03-29 04:54:00,38.0,32.1,30.18,ESE,106,0.0,4.0,79,0.00,,---,0.00,VWS V14.01,2013-03-29 09:54:00,
2013-03-29 05:00:00,37.7,31.8,30.18,ESE,106,1.0,4.0,79,0.00,,---,0.00,VWS V14.01,2013-03-29 10:00:00,
2013-03-29 05:06:00,37.5,31.6,30.18,ESE,107,0.0,2.0,79,0.00,,---,0.00,VWS V14.01,2013-03-29 10:06:00,
2013-03-29 05:12:00,37.2,31.6,30.18,ESE,107,0.0,2.0,80,0.00,,---,0.00,VWS V14.01,2013-03-29 10:12:00,
2013-03-29 05:18:00,37.3,31.7,30.18,ESE,106,0.0,2.0,80,0.00,,---,0.00,VWS V14.01,2013-03-29 10:18:00,
2013-03-29 05:24:00,37.2,31.6,30.18,ESE,107,0.0,2.0,80,0.00,,---,0.00,VWS V14.01,2013-03-29 10:24:00,
2013-03-29 05:30:00,37.2,31.6,30.18,ESE,106,0.0,2.0,80,0.00,,---,0.00,VWS V14.01,2013-03-29 10:30:00,
2013-03-29 05:37:00,37.1,31.8,30.18,ESE,106,1.0,2.0,81,0.00,,---,0.00,VWS V14.01,2013-03-29 10:37:00,
2013-03-29 05:43:00,37.1,31.8,30.18,ESE,107,1.0,2.0,81,0.00,,---,0.00,VWS V14.01,2013-03-29 10:43:00,
2013-03-29 05:49:00,37.2,31.9,30.18,ESE,106,2.0,3.0,81,0.00,,---,0.00,VWS V14.01,2013-03-29 10:49:00,
2013-03-29 05:55:00,37.1,31.8,30.18,ESE,107,2.0,3.0,81,0.00,,---,0.00,VWS V14.01,2013-03-29 10:55:00,
2013-03-29 06:01:00,37.3,32.0,30.18,ESE,107,2.0,3.0,81,0.00,,---,0.00,VWS V14.01,2013-03-29 11:01:00,
2013-03-29 06:07:00,36.9,31.9,30.18,ESE,106,2.0,3.0,82,0.00,,---,0.00,VWS V14.01,2013-03-29 11:07:00,
2013-03-29 06:13:00,36.9,31.6,30.18,ESE,106,2.0,3.0,81,0.00,,---,0.00,VWS V14.01,2013-03-29 11:13:00,
2013-03-29 06:19:00,36.5,31.5,30.19,ESE,107,2.0,3.0,82,0.00,,---,0.00,VWS V14.01,2013-03-29 11:19:00,
2013-03-29 06:25:00,36.6,31.9,30.19,ESE,107,1.0,3.0,83,0.00,,---,0.00,VWS V14.01,2013-03-29 11:25:00,
2013-03-29 06:31:00,36.6,31.9,30.19,ESE,107,3.0,3.0,83,0.00,,---,0.00,VWS V14.01,2013-03-29 11:31:00,
2013-03-29 06:38:00,36.5,31.8,30.19,ESE,107,2.0,3.0,83,0.00,,---,0.00,VWS V14.01,2013-03-29 11:38:00,
2013-03-29 06:44:00,36.0,31.0,30.19,ESE,106,2.0,3.0,82,0.00,,---,0.00,VWS V14.01,2013-03-29 11:44:00,
2013-03-29 06:50:00,35.7,31.0,30.20,ESE,107,2.0,4.0,83,0.00,,---,0.00,VWS V14.01,2013-03-29 11:50:00,
2013-03-29 06:56:00,35.6,31.2,30.20,ESE,107,1.0,4.0,84,0.00,,---,0.00,VWS V14.01,2013-03-29 11:56:00,
2013-03-29 07:02:00,35.1,30.5,30.20,ESE,107,1.0,2.0,83,0.00,,---,0.00,VWS V14.01,2013-03-29 12:02:00,
2013-03-29 07:08:00,34.8,30.5,30.20,ESE,107,2.0,3.0,84,0.00,,---,0.00,VWS V14.01,2013-03-29 12:08:00,
2013-03-29 07:14:00,34.7,30.7,30.20,ESE,107,2.0,3.0,85,0.00,,---,0.00,VWS V14.01,2013-03-29 12:14:00,
2013-03-29 07:20:00,34.4,30.4,30.20,ESE,106,3.0,4.0,85,0.00,,---,0.00,VWS V14.01,2013-03-29 12:20:00,
2013-03-29 07:26:00,34.4,30.6,30.20,ESE,107,3.0,5.0,86,0.00,,---,0.00,VWS V14.01,2013-03-29 12:26:00,
2013-03-29 07:32:00,34.6,30.9,30.20,ESE,106,4.0,4.0,86,0.00,,---,0.00,VWS V14.01,2013-03-29 12:32:00,
2013-03-29 07:39:00,34.7,31.0,30.21,ESE,106,3.0,5.0,86,0.00,,---,0.00,VWS V14.01,2013-03-29 12:39:00,
2013-03-29 07:45:00,34.7,31.0,30.21,ESE,107,2.0,5.0,86,0.00,,---,0.00,VWS V14.01,2013-03-29 12:45:00,
2013-03-29 07:51:00,35.0,31.2,30.21,ESE,107,1.0,5.0,86,0.00,,---,0.00,VWS V14.01,2013-03-29 12:51:00,
2013-03-29 07:57:00,35.3,31.5,30.21,ESE,107,0.0,5.0,86,0.00,,---,0.00,VWS V14.01,2013-03-29 12:57:00,
2013-03-29 08:03:00,35.7,31.9,30.22,ESE,106,2.0,3.0,86,0.00,,---,0.00,VWS V14.01,2013-03-29 13:03:00,
2013-03-29 08:09:00,36.0,31.9,30.22,ESE,107,2.0,4.0,85,0.00,,---,0.00,VWS V14.01,2013-03-29 13:09:00,
2013-03-29 08:15:00,36.3,32.2,30.22,ESE,107,2.0,4.0,85,0.00,,---,0.00,VWS V14.01,2013-03-29 13:15:00,
2013-03-29 08:21:00,36.6,32.5,30.22,ESE,107,2.0,4.0,85,0.00,,---,0.00,VWS V14.01,2013-03-29 13:21:00,
2013-03-29 08:27:00,36.9,32.8,30.22,ESE,107,2.0,4.0,85,0.00,,---,0.00,VWS V14.01,2013-03-29 13:27:00,
2013-03-29 08:33:00,37.4,33.3,30.22,ESE,107,1.0,3.0,85,0.00,,---,0.00,VWS V14.01,2013-03-29 13:33:00,
2013-03-29 08:39:00,38.1,34.0,30.22,ESE,105,2.0,7.0,85,0.00,,---,0.00,VWS V14.01,2013-03-29 13:39:00,
2013-03-29 08:45:00,38.7,34.3,30.22,ESE,107,2.0,7.0,84,0.00,,---,0.00,VWS V14.01,2013-03-29 13:45:00,
2013-03-29 08:51:00,39.2,34.5,30.22,ESE,117,1.0,7.0,83,0.00,,---,0.00,VWS V14.01,2013-03-29 13:51:00,
2013-03-29 08:57:00,39.6,34.9,30.22,ESE,107,4.0,7.0,83,0.00,,---,0.00,VWS V14.01,2013-03-29 13:57:00,
2013-03-29 09:04:00,40.2,35.5,30.22,ESE,113,3.0,4.0,83,0.00,,---,0.00,VWS V14.01,2013-03-29 14:04:00,
2013-03-29 09:10:00,41.0,36.2,30.22,ESE,109,0.0,5.0,83,0.00,,---,0.00,VWS V14.01,2013-03-29 14:10:00,
2013-03-29 09:16:00,41.8,36.7,30.22,ESE,109,3.0,7.0,82,0.00,,---,0.00,VWS V14.01,2013-03-29 14:16:00,
2013-03-29 09:22:00,42.7,37.3,30.22,ENE,60,1.0,7.0,81,0.00,,---,0.00,VWS V14.01,2013-03-29 14:22:00,
2013-03-29 09:28:00,43.6,37.5,30.22,ESE,112,3.0,7.0,79,0.00,,---,0.00,VWS V14.01,2013-03-29 14:28:00,
2013-03-29 09:34:00,44.5,38.4,30.22,ESE,111,2.0,4.0,79,0.00,,---,0.00,VWS V14.01,2013-03-29 14:34:00,
2013-03-29 09:40:00,45.1,38.0,30.22,ESE,110,3.0,7.0,76,0.00,,---,0.00,VWS V14.01,2013-03-29 14:40:00,
2013-03-29 09:46:00,46.0,38.9,30.22,ESE,104,4.0,7.0,76,0.00,,---,0.00,VWS V14.01,2013-03-29 14:46:00,
2013-03-29 09:52:00,46.7,38.5,30.22,ESE,110,4.0,7.0,73,0.00,,---,0.00,VWS V14.01,2013-03-29 14:52:00,
2013-03-29 09:58:00,47.1,38.9,30.22,ESE,110,7.0,8.0,73,0.00,,---,0.00,VWS V14.01,2013-03-29 14:58:00,
2013-03-29 10:04:00,47.5,39.3,30.22,East,99,7.0,8.0,73,0.00,,---,0.00,VWS V14.01,2013-03-29 15:04:00,
2013-03-29 10:10:00,47.9,39.0,30.22,ESE,113,4.0,10.0,71,0.00,,---,0.00,VWS V14.01,2013-03-29 15:10:00,
2013-03-29 10:16:00,48.7,39.7,30.22,ESE,116,2.0,10.0,71,0.00,,---,0.00,VWS V14.01,2013-03-29 15:16:00,
2013-03-29 10:22:00,49.4,40.4,30.22,ESE,113,2.0,10.0,71,0.00,,---,0.00,VWS V14.01,2013-03-29 15:22:00,
2013-03-29 10:28:00,50.4,40.6,30.22,SE,126,3.0,10.0,69,0.00,,---,0.00,VWS V14.01,2013-03-29 15:28:00,
2013-03-29 10:39:00,51.1,40.5,30.22,SE,125,5.0,5.0,67,0.00,,---,0.00,VWS V14.01,2013-03-29 15:39:00,
2013-03-29 10:45:00,51.8,40.8,30.22,SE,130,5.0,8.0,66,0.00,,---,0.00,VWS V14.01,2013-03-29 15:45:00,
2013-03-29 10:51:00,52.6,41.6,30.22,ESE,117,3.0,8.0,66,0.00,,---,0.00,VWS V14.01,2013-03-29 15:51:00,
2013-03-29 10:57:00,53.1,41.3,30.22,ESE,119,5.0,9.0,64,0.00,,---,0.00,VWS V14.01,2013-03-29 15:57:00,
2013-03-29 11:03:00,53.5,41.2,30.21,East,101,7.0,9.0,63,0.00,,---,0.00,VWS V14.01,2013-03-29 16:03:00,
2013-03-29 11:09:00,54.1,41.0,30.21,ESE,111,8.0,10.0,61,0.00,,---,0.00,VWS V14.01,2013-03-29 16:09:00,
2013-03-29 11:15:00,54.7,41.5,30.21,ESE,105,5.0,10.0,61,0.00,,---,0.00,VWS V14.01,2013-03-29 16:15:00,
2013-03-29 11:21:00,55.5,41.9,30.21,ESE,113,9.0,10.0,60,0.00,,---,0.00,VWS V14.01,2013-03-29 16:21:00,
2013-03-29 11:27:00,56.0,41.0,30.21,ESE,119,10.0,14.0,57,0.00,,---,0.00,VWS V14.01,2013-03-29 16:27:00,
2013-03-29 11:33:00,56.0,40.5,30.21,SE,127,7.0,12.0,56,0.00,,---,0.00,VWS V14.01,2013-03-29 16:33:00,
2013-03-29 11:40:00,56.4,41.4,30.20,ESE,117,3.0,12.0,57,0.00,,---,0.00,VWS V14.01,2013-03-29 16:40:00,
2013-03-29 11:46:00,57.0,41.0,30.20,SE,134,5.0,12.0,55,0.00,,---,0.00,VWS V14.01,2013-03-29 16:46:00,
2013-03-29 11:52:00,57.0,40.5,30.20,ESE,117,7.0,12.0,54,0.00,,---,0.00,VWS V14.01,2013-03-29 16:52:00,
2013-03-29 11:58:00,57.1,40.2,30.20,SE,127,7.0,14.0,53,0.00,,---,0.00,VWS V14.01,2013-03-29 16:58:00,
2013-03-29 12:04:00,57.3,39.8,30.20,SE,140,4.0,11.0,52,0.00,,---,0.00,VWS V14.01,2013-03-29 17:04:00,
2013-03-29 12:10:00,57.9,40.9,30.19,ESE,111,4.0,11.0,53,0.00,,---,0.00,VWS V14.01,2013-03-29 17:10:00,
2013-03-29 12:16:00,58.4,39.8,30.19,ESE,122,11.0,13.0,50,0.00,,---,0.00,VWS V14.01,2013-03-29 17:16:00,
2013-03-29 12:22:00,58.6,40.5,30.19,SE,125,5.0,13.0,51,0.00,,---,0.00,VWS V14.01,2013-03-29 17:22:00,
2013-03-29 12:28:00,59.0,39.4,30.18,ESE,117,3.0,13.0,48,0.00,,---,0.00,VWS V14.01,2013-03-29 17:28:00,
2013-03-29 12:34:00,59.2,39.5,30.18,ESE,109,8.0,11.0,48,0.00,,---,0.00,VWS V14.01,2013-03-29 17:34:00,
2013-03-29 12:40:00,59.0,39.4,30.18,ESE,109,8.0,13.0,48,0.00,,---,0.00,VWS V14.01,2013-03-29 17:40:00,
2013-03-29 12:46:00,59.5,38.2,30.18,SE,128,3.0,13.0,45,0.00,,---,0.00,VWS V14.01,2013-03-29 17:46:00,
2013-03-29 12:52:00,60.2,38.8,30.18,SE,125,5.0,13.0,45,0.00,,---,0.00,VWS V14.01,2013-03-29 17:52:00,
2013-03-29 12:58:00,60.1,38.1,30.17,SE,124,2.0,13.0,44,0.00,,---,0.00,VWS V14.01,2013-03-29 17:58:00,
2013-03-29 13:05:00,60.6,39.2,30.17,SE,128,4.0,7.0,45,0.00,,---,0.00,VWS V14.01,2013-03-29 18:05:00,
2013-03-29 13:11:00,61.3,38.6,30.17,ESE,123,5.0,10.0,43,0.00,,---,0.00,VWS V14.01,2013-03-29 18:11:00,
2013-03-29 13:17:00,61.6,39.5,30.16,SE,136,1.0,10.0,44,0.00,,---,0.00,VWS V14.01,2013-03-29 18:17:00,
2013-03-29 13:23:00,62.2,40.0,30.16,SE,130,4.0,10.0,44,0.00,,---,0.00,VWS V14.01,2013-03-29 18:23:00,
2013-03-29 13:29:00,62.3,38.3,30.16,ESE,115,7.0,10.0,41,0.00,,---,0.00,VWS V14.01,2013-03-29 18:29:00,
2013-03-29 13:35:00,62.7,40.5,30.15,ESE,107,0.0,7.0,44,0.00,,---,0.00,VWS V14.01,2013-03-29 18:35:00,
2013-03-29 13:43:00,63.3,39.2,30.15,ESE,110,7.0,11.0,41,0.00,,---,0.00,VWS V14.01,2013-03-29 18:43:00,
2013-03-29 13:49:00,63.9,38.5,30.15,SSE,154,3.0,11.0,39,0.00,,---,0.00,VWS V14.01,2013-03-29 18:49:00,
2013-03-29 13:55:00,63.9,37.8,30.15,SE,145,1.0,11.0,38,0.00,,---,0.00,VWS V14.01,2013-03-29 18:55:00,
2013-03-29 14:00:00,63.7,38.3,30.14,SSE,168,0.0,11.0,39,0.00,,---,0.00,VWS V14.01,2013-03-29 19:00:00,
2013-03-29 14:05:00,64.0,38.6,30.14,ESE,113,0.0,8.0,39,0.00,,---,0.00,VWS V14.01,2013-03-29 19:05:00,
2013-03-29 14:12:00,64.7,40.5,30.14,East,84,1.0,8.0,41,0.00,,---,0.00,VWS V14.01,2013-03-29 19:12:00,
2013-03-29 14:18:00,64.4,37.6,30.14,SE,136,0.0,10.0,37,0.00,,---,0.00,VWS V14.01,2013-03-29 19:18:00,
2013-03-29 14:24:00,64.7,37.2,30.13,ESE,115,12.0,13.0,36,0.00,,---,0.00,VWS V14.01,2013-03-29 19:24:00,
2013-03-29 14:30:00,64.3,36.8,30.13,ESE,119,0.0,13.0,36,0.00,,---,0.00,VWS V14.01,2013-03-29 19:30:00,
2013-03-29 14:36:00,64.8,37.9,30.13,ESE,106,13.0,13.0,37,0.00,,---,0.00,VWS V14.01,2013-03-29 19:36:00,
2013-03-29 14:42:00,64.7,37.2,30.12,SE,136,9.0,13.0,36,0.00,,---,0.00,VWS V14.01,2013-03-29 19:42:00,
2013-03-29 14:48:00,65.2,37.6,30.12,ESE,111,4.0,13.0,36,0.00,,---,0.00,VWS V14.01,2013-03-29 19:48:00,
2013-03-29 14:54:00,65.7,38.0,30.12,SE,124,6.0,13.0,36,0.00,,---,0.00,VWS V14.01,2013-03-29 19:54:00,
2013-03-29 15:00:00,65.8,38.1,30.11,ESE,113,10.0,13.0,36,0.00,,---,0.00,VWS V14.01,2013-03-29 20:00:00,
2013-03-29 15:06:00,65.3,36.2,30.11,SE,127,6.0,11.0,34,0.00,,---,0.00,VWS V14.01,2013-03-29 20:06:00,
2013-03-29 15:13:00,65.6,37.2,30.11,South,179,0.0,11.0,35,0.00,,---,0.00,VWS V14.01,2013-03-29 20:13:00,
2013-03-29 15:19:00,66.2,37.0,30.11,SE,134,0.0,11.0,34,0.00,,---,0.00,VWS V14.01,2013-03-29 20:19:00,
2013-03-29 15:25:00,66.5,36.5,30.10,SE,138,1.0,12.0,33,0.00,,---,0.00,VWS V14.01,2013-03-29 20:25:00,
2013-03-29 15:30:00,66.3,37.1,30.10,ESE,114,5.0,13.0,34,0.00,,---,0.00,VWS V14.01,2013-03-29 20:30:00,
2013-03-29 15:37:00,65.7,37.3,30.10,SSE,164,0.0,9.0,35,0.00,,---,0.00,VWS V14.01,2013-03-29 20:37:00,
2013-03-29 15:43:00,65.8,36.7,30.09,ESE,120,8.0,9.0,34,0.00,,---,0.00,VWS V14.01,2013-03-29 20:43:00,
2013-03-29 15:49:00,66.0,36.8,30.09,ESE,120,8.0,15.0,34,0.00,,---,0.00,VWS V14.01,2013-03-29 20:49:00,
2013-03-29 15:55:00,66.3,37.1,30.09,ESE,121,0.0,15.0,34,0.00,,---,0.00,VWS V14.01,2013-03-29 20:55:00,
2013-03-29 16:01:00,66.8,36.8,30.09,SE,126,0.0,15.0,33,0.00,,---,0.00,VWS V14.01,2013-03-29 21:01:00,
2013-03-29 16:07:00,67.1,36.3,30.08,ESE,122,1.0,9.0,32,0.00,,---,0.00,VWS V14.01,2013-03-29 21:07:00,
2013-03-29 16:13:00,67.2,36.4,30.08,ESE,109,7.0,11.0,32,0.00,,---,0.00,VWS V14.01,2013-03-29 21:13:00,
2013-03-29 16:20:00,67.4,37.3,30.08,SSE,150,0.0,11.0,33,0.00,,---,0.00,VWS V14.01,2013-03-29 21:20:00,
2013-03-29 16:26:00,67.7,35.2,30.08,ESE,111,4.0,11.0,30,0.00,,---,0.00,VWS V14.01,2013-03-29 21:26:00,
2013-03-29 16:32:00,67.5,35.8,30.08,ESE,118,5.0,9.0,31,0.00,,---,0.00,VWS V14.01,2013-03-29 21:32:00,
2013-03-29 16:38:00,67.1,34.7,30.07,ESE,119,1.0,10.0,30,0.00,,---,0.00,VWS V14.01,2013-03-29 21:38:00,
2013-03-29 16:44:00,67.5,36.6,30.07,SSW,209,0.0,10.0,32,0.00,,---,0.00,VWS V14.01,2013-03-29 21:44:00,
2013-03-29 16:50:00,67.9,36.2,30.07,ESE,117,0.0,11.0,31,0.00,,---,0.00,VWS V14.01,2013-03-29 21:50:00,
2013-03-29 16:56:00,68.3,35.7,30.07,SSE,149,0.0,11.0,30,0.00,,---,0.00,VWS V14.01,2013-03-29 21:56:00,
2013-03-29 17:02:00,68.2,34.8,30.07,ESE,107,2.0,2.0,29,0.00,,---,0.00,VWS V14.01,2013-03-29 22:02:00,
2013-03-29 17:08:00,68.1,35.5,30.07,ESE,106,0.0,5.0,30,0.00,,---,0.00,VWS V14.01,2013-03-29 22:08:00,
2013-03-29 17:14:00,68.1,36.3,30.07,South,178,1.0,6.0,31,0.00,,---,0.00,VWS V14.01,2013-03-29 22:14:00,
2013-03-29 17:20:00,67.8,36.9,30.07,SSE,153,0.0,6.0,32,0.00,,---,0.00,VWS V14.01,2013-03-29 22:20:00,
2013-03-29 17:26:00,67.6,35.1,30.07,ESE,113,8.0,10.0,30,0.00,,---,0.00,VWS V14.01,2013-03-29 22:26:00,
2013-03-29 17:34:00,67.2,36.4,30.07,ESE,114,2.0,9.0,32,0.00,,---,0.00,VWS V14.01,2013-03-29 22:34:00,
2013-03-29 17:40:00,67.1,35.5,30.06,SSE,157,0.0,9.0,31,0.00,,---,0.00,VWS V14.01,2013-03-29 22:40:00,
2013-03-29 17:46:00,67.1,36.3,30.07,SSE,164,0.0,9.0,32,0.00,,---,0.00,VWS V14.01,2013-03-29 22:46:00,
2013-03-29 17:53:00,67.2,35.6,30.06,SSE,167,1.0,9.0,31,0.00,,---,0.00,VWS V14.01,2013-03-29 22:53:00,
2013-03-29 17:59:00,66.8,35.2,30.06,SE,138,0.0,9.0,31,0.00,,---,0.00,VWS V14.01,2013-03-29 22:59:00,
2013-03-29 18:05:00,66.5,35.8,30.06,ESE,107,0.0,5.0,32,0.00,,---,0.00,VWS V14.01,2013-03-29 23:05:00,
2013-03-29 18:11:00,66.1,34.6,30.06,SE,125,1.0,11.0,31,0.00,,---,0.00,VWS V14.01,2013-03-29 23:11:00,
2013-03-29 18:17:00,65.8,34.3,30.06,SSE,148,6.0,11.0,31,0.00,,---,0.00,VWS V14.01,2013-03-29 23:17:00,
2013-03-29 18:23:00,65.6,35.0,30.06,ESE,114,0.0,11.0,32,0.00,,---,0.00,VWS V14.01,2013-03-29 23:23:00,
2013-03-29 18:29:00,65.2,35.4,30.05,SE,126,2.0,11.0,33,0.00,,---,0.00,VWS V14.01,2013-03-29 23:29:00,
2013-03-29 18:35:00,64.9,35.1,30.06,ESE,110,1.0,7.0,33,0.00,,---,0.00,VWS V14.01,2013-03-29 23:35:00,
2013-03-29 18:44:00,64.5,34.8,30.05,ESE,114,0.0,7.0,33,0.00,,---,0.00,VWS V14.01,2013-03-29 23:44:00,
2013-03-29 18:50:00,64.2,35.3,30.05,ESE,112,1.0,7.0,34,0.00,,---,0.00,VWS V14.01,2013-03-29 23:50:00,
2013-03-29 18:56:00,63.9,35.7,30.05,ESE,113,0.0,7.0,35,0.00,,---,0.00,VWS V14.01,2013-03-29 23:56:00,
2013-03-29 19:02:00,63.6,35.5,30.05,ESE,113,0.0,1.0,35,0.00,,---,0.00,VWS V14.01,2013-03-30 00:02:00,
2013-03-29 19:08:00,63.2,35.8,30.05,ESE,113,0.0,1.0,36,0.00,,---,0.00,VWS V14.01,2013-03-30 00:08:00,
2013-03-29 19:14:00,62.9,35.6,30.05,ESE,113,0.0,1.0,36,0.00,,---,0.00,VWS V14.01,2013-03-30 00:14:00,
2013-03-29 19:20:00,62.8,35.5,30.05,ESE,113,0.0,1.0,36,0.00,,---,0.00,VWS V14.01,2013-03-30 00:20:00,
2013-03-29 19:28:00,62.5,35.9,30.05,ESE,113,0.0,1.0,37,0.00,,---,0.00,VWS V14.01,2013-03-30 00:28:00,
2013-03-29 19:34:00,62.2,35.6,30.05,ESE,117,0.0,1.0,37,0.00,,---,0.00,VWS V14.01,2013-03-30 00:34:00,
2013-03-29 19:40:00,61.8,35.3,30.04,ESE,118,0.0,1.0,37,0.00,,---,0.00,VWS V14.01,2013-03-30 00:40:00,
2013-03-29 19:46:00,61.7,35.2,30.04,ESE,113,0.0,5.0,37,0.00,,---,0.00,VWS V14.01,2013-03-30 00:46:00,
2013-03-29 19:53:00,61.4,34.9,30.04,ESE,115,0.0,5.0,37,0.00,,---,0.00,VWS V14.01,2013-03-30 00:53:00,
2013-03-29 19:59:00,61.1,35.3,30.04,ESE,109,0.0,5.0,38,0.00,,---,0.00,VWS V14.01,2013-03-30 00:59:00,
2013-03-29 20:05:00,60.8,35.1,30.04,ESE,113,1.0,7.0,38,0.00,,---,0.00,VWS V14.01,2013-03-30 01:05:00,
2013-03-29 20:13:00,60.4,34.7,30.03,ESE,113,3.0,7.0,38,0.00,,---,0.00,VWS V14.01,2013-03-30 01:13:00,
2013-03-29 20:19:00,60.0,35.0,30.04,ESE,110,3.0,7.0,39,0.00,,---,0.00,VWS V14.01,2013-03-30 01:19:00,
2013-03-29 20:25:00,59.7,34.7,30.03,East,101,6.0,7.0,39,0.00,,---,0.00,VWS V14.01,2013-03-30 01:25:00,
2013-03-29 20:30:00,59.5,35.2,30.03,ESE,108,4.0,7.0,40,0.00,,---,0.00,VWS V14.01,2013-03-30 01:30:00,
2013-03-29 20:37:00,59.0,34.7,30.03,East,99,3.0,5.0,40,0.00,,---,0.00,VWS V14.01,2013-03-30 01:37:00,
2013-03-29 20:43:00,59.0,34.7,30.03,ESE,117,4.0,6.0,40,0.00,,---,0.00,VWS V14.01,2013-03-30 01:43:00,
2013-03-29 20:49:00,59.0,35.3,30.03,ESE,118,3.0,7.0,41,0.00,,---,0.00,VWS V14.01,2013-03-30 01:49:00,
2013-03-29 20:55:00,58.9,35.3,30.04,ESE,122,2.0,7.0,41,0.00,,---,0.00,VWS V14.01,2013-03-30 01:55:00,
2013-03-29 21:01:00,58.9,35.3,30.04,ESE,111,5.0,7.0,41,0.00,,---,0.00,VWS V14.01,2013-03-30 02:01:00,
2013-03-29 21:08:00,58.6,35.0,30.04,ESE,119,3.0,7.0,41,0.00,,---,0.00,VWS V14.01,2013-03-30 02:08:00,
2013-03-29 21:14:00,58.6,35.0,30.04,ESE,113,1.0,7.0,41,0.00,,---,0.00,VWS V14.01,2013-03-30 02:14:00,
2013-03-29 21:20:00,58.4,35.4,30.04,ESE,118,4.0,7.0,42,0.00,,---,0.00,VWS V14.01,2013-03-30 02:20:00,
2013-03-29 21:26:00,58.1,35.2,30.04,ESE,119,5.0,7.0,42,0.00,,---,0.00,VWS V14.01,2013-03-30 02:26:00,
2013-03-29 21:34:00,57.8,35.5,30.04,East,95,5.0,5.0,43,0.00,,---,0.00,VWS V14.01,2013-03-30 02:34:00,
2013-03-29 21:40:00,57.6,35.9,30.04,SE,134,0.0,5.0,44,0.00,,---,0.00,VWS V14.01,2013-03-30 02:40:00,
2013-03-29 21:46:00,57.6,35.9,30.04,SE,134,0.0,7.0,44,0.00,,---,0.00,VWS V14.01,2013-03-30 02:46:00,
2013-03-29 21:52:00,57.7,35.4,30.04,SE,124,7.0,8.0,43,0.00,,---,0.00,VWS V14.01,2013-03-30 02:52:00,
2013-03-29 21:58:00,57.8,35.5,30.05,South,181,3.0,8.0,43,0.00,,---,0.00,VWS V14.01,2013-03-30 02:58:00,
2013-03-29 22:04:00,57.9,35.0,30.04,ESE,113,4.0,9.0,42,0.00,,---,0.00,VWS V14.01,2013-03-30 03:04:00,
2013-03-29 22:11:00,58.0,35.1,30.04,SE,140,10.0,10.0,42,0.00,,---,0.00,VWS V14.01,2013-03-30 03:11:00,
2013-03-29 22:17:00,57.7,35.4,30.03,SE,128,6.0,10.0,43,0.00,,---,0.00,VWS V14.01,2013-03-30 03:17:00,
2013-03-29 22:23:00,57.3,35.6,30.03,ESE,102,9.0,11.0,44,0.00,,---,0.00,VWS V14.01,2013-03-30 03:23:00,
2013-03-29 22:29:00,57.1,35.4,30.03,SE,130,4.0,11.0,44,0.00,,---,0.00,VWS V14.01,2013-03-30 03:29:00,
2013-03-29 22:35:00,57.2,34.9,30.03,ESE,115,8.0,10.0,43,0.00,,---,0.00,VWS V14.01,2013-03-30 03:35:00,
2013-03-29 22:41:00,57.3,35.0,30.03,SE,128,4.0,14.0,43,0.00,,---,0.00,VWS V14.01,2013-03-30 03:41:00,
2013-03-29 22:47:00,57.5,35.2,30.03,ESE,123,9.0,14.0,43,0.00,,---,0.00,VWS V14.01,2013-03-30 03:47:00,
2013-03-29 22:53:00,57.6,35.3,30.03,ESE,117,7.0,14.0,43,0.00,,---,0.00,VWS V14.01,2013-03-30 03:53:00,
2013-03-29 22:59:00,57.3,35.0,30.03,ESE,121,5.0,14.0,43,0.00,,---,0.00,VWS V14.01,2013-03-30 03:59:00,
2013-03-29 23:01:00,57.2,34.9,30.03,ESE,118,5.0,14.0,43,0.00,,---,0.00,VWS V14.01,2013-03-30 04:01:00,
2013-03-29 23:03:00,57.1,35.4,30.03,ESE,109,2.0,8.0,44,0.00,,---,0.00,VWS V14.01,2013-03-30 04:03:00,
2013-03-29 23:07:00,56.9,35.2,30.04,ESE,122,4.0,8.0,44,0.00,,---,0.00,VWS V14.01,2013-03-30 04:07:00,
2013-03-29 23:14:00,56.7,35.0,30.04,ESE,118,8.0,8.0,44,0.00,,---,0.00,VWS V14.01,2013-03-30 04:14:00,
2013-03-29 23:20:00,56.6,35.0,30.04,ESE,121,0.0,8.0,44,0.00,,---,0.00,VWS V14.01,2013-03-30 04:20:00,
2013-03-29 23:26:00,56.4,34.8,30.05,ESE,112,4.0,8.0,44,0.00,,---,0.00,VWS V14.01,2013-03-30 04:26:00,
2013-03-29 23:32:00,56.2,35.2,30.05,ESE,115,2.0,5.0,45,0.00,,---,0.00,VWS V14.01,2013-03-30 04:32:00,
2013-03-29 23:38:00,56.0,35.0,30.05,ESE,106,3.0,7.0,45,0.00,,---,0.00,VWS V14.01,2013-03-30 04:38:00,
2013-03-29 23:44:00,55.9,34.9,30.05,East,98,8.0,9.0,45,0.00,,---,0.00,VWS V14.01,2013-03-30 04:44:00,
2013-03-29 23:50:00,55.7,35.3,30.05,ESE,111,5.0,9.0,46,0.00,,---,0.00,VWS V14.01,2013-03-30 04:50:00,
2013-03-29 23:56:00,55.4,35.0,30.05,ESE,103,4.0,9.0,46,0.00,,---,0.00,VWS V14.01,2013-03-30 04:56:00,